sensor_id;sensor_type;location;lat;lon;timestamp;P1;durP1;ratioP1;P2;durP2;ratioP2
29026;SDS011;16120;48.608;9.092;2023-04-12T00:00:07;80.07;;;6.60;;
29026;SDS011;16120;48.608;9.092;2023-04-12T00:04:03;77.93;;;4.80;;
29026;SDS011;16120;48.608;9.092;2023-04-12T00:07:58;84.43;;;5.13;;
29026;SDS011;16120;48.608;9.092;2023-04-12T00:11:53;76.33;;;4.60;;
29026;SDS011;16120;48.608;9.092;2023-04-12T00:15:50;81.20;;;5.33;;
29026;SDS011;16120;48.608;9.092;2023-04-12T00:19:45;83.93;;;5.00;;
29026;SDS011;16120;48.608;9.092;2023-04-12T00:23:40;77.77;;;5.33;;
29026;SDS011;16120;48.608;9.092;2023-04-12T00:27:36;81.63;;;4.90;;
29026;SDS011;16120;48.608;9.092;2023-04-12T00:31:32;77.90;;;5.00;;
29026;SDS011;16120;48.608;9.092;2023-04-12T00:35:27;80.27;;;5.20;;
29026;SDS011;16120;48.608;9.092;2023-04-12T00:39:22;78.27;;;5.07;;
29026;SDS011;16120;48.608;9.092;2023-04-12T00:43:18;77.20;;;4.77;;
29026;SDS011;16120;48.608;9.092;2023-04-12T00:47:14;79.57;;;4.87;;
29026;SDS011;16120;48.608;9.092;2023-04-12T00:51:09;77.93;;;4.63;;
29026;SDS011;16120;48.608;9.092;2023-04-12T00:55:05;81.37;;;5.63;;
29026;SDS011;16120;48.608;9.092;2023-04-12T00:59:01;80.80;;;5.00;;
29026;SDS011;16120;48.608;9.092;2023-04-12T01:02:57;77.37;;;4.93;;
29026;SDS011;16120;48.608;9.092;2023-04-12T01:06:57;79.43;;;4.73;;
29026;SDS011;16120;48.608;9.092;2023-04-12T01:10:55;76.27;;;4.57;;
29026;SDS011;16120;48.608;9.092;2023-04-12T01:14:53;77.90;;;4.60;;
29026;SDS011;16120;48.608;9.092;2023-04-12T01:18:52;90.83;;;4.70;;
29026;SDS011;16120;48.608;9.092;2023-04-12T01:22:52;81.40;;;4.73;;
29026;SDS011;16120;48.608;9.092;2023-04-12T01:26:49;80.50;;;4.70;;
29026;SDS011;16120;48.608;9.092;2023-04-12T01:30:46;84.70;;;4.87;;
29026;SDS011;16120;48.608;9.092;2023-04-12T01:34:44;78.57;;;4.80;;
29026;SDS011;16120;48.608;9.092;2023-04-12T01:38:40;77.20;;;5.10;;
29026;SDS011;16120;48.608;9.092;2023-04-12T01:42:35;79.20;;;5.00;;
29026;SDS011;16120;48.608;9.092;2023-04-12T01:46:32;78.93;;;4.63;;
29026;SDS011;16120;48.608;9.092;2023-04-12T01:50:29;81.27;;;4.90;;
29026;SDS011;16120;48.608;9.092;2023-04-12T01:54:28;78.60;;;4.50;;
29026;SDS011;16120;48.608;9.092;2023-04-12T01:58:24;78.87;;;5.00;;
29026;SDS011;16120;48.608;9.092;2023-04-12T02:02:20;78.47;;;5.10;;
29026;SDS011;16120;48.608;9.092;2023-04-12T02:06:17;78.60;;;5.17;;
29026;SDS011;16120;48.608;9.092;2023-04-12T02:10:12;81.00;;;5.00;;
29026;SDS011;16120;48.608;9.092;2023-04-12T02:14:08;79.57;;;4.60;;
29026;SDS011;16120;48.608;9.092;2023-04-12T02:18:04;79.50;;;5.20;;
29026;SDS011;16120;48.608;9.092;2023-04-12T02:22:00;79.00;;;4.80;;
29026;SDS011;16120;48.608;9.092;2023-04-12T02:25:55;77.97;;;4.53;;
29026;SDS011;16120;48.608;9.092;2023-04-12T02:29:50;78.15;;;4.55;;
29026;SDS011;16120;48.608;9.092;2023-04-12T02:33:47;77.13;;;4.67;;
29026;SDS011;16120;48.608;9.092;2023-04-12T02:37:42;78.03;;;4.80;;
29026;SDS011;16120;48.608;9.092;2023-04-12T02:41:38;78.43;;;4.67;;
29026;SDS011;16120;48.608;9.092;2023-04-12T02:45:33;81.17;;;4.73;;
29026;SDS011;16120;48.608;9.092;2023-04-12T02:49:29;78.30;;;4.80;;
29026;SDS011;16120;48.608;9.092;2023-04-12T02:53:25;82.77;;;5.03;;
29026;SDS011;16120;48.608;9.092;2023-04-12T02:57:20;78.00;;;4.80;;
29026;SDS011;16120;48.608;9.092;2023-04-12T03:01:15;78.90;;;5.20;;
29026;SDS011;16120;48.608;9.092;2023-04-12T03:05:11;78.67;;;4.77;;
29026;SDS011;16120;48.608;9.092;2023-04-12T03:09:07;79.00;;;5.10;;
29026;SDS011;16120;48.608;9.092;2023-04-12T03:13:02;79.00;;;5.13;;
29026;SDS011;16120;48.608;9.092;2023-04-12T03:16:57;78.68;;;4.80;;
29026;SDS011;16120;48.608;9.092;2023-04-12T03:20:54;75.67;;;4.40;;
29026;SDS011;16120;48.608;9.092;2023-04-12T03:24:49;75.77;;;4.40;;
29026;SDS011;16120;48.608;9.092;2023-04-12T03:28:44;79.07;;;4.93;;
29026;SDS011;16120;48.608;9.092;2023-04-12T03:32:39;75.77;;;4.77;;
29026;SDS011;16120;48.608;9.092;2023-04-12T03:36:36;78.23;;;4.53;;
29026;SDS011;16120;48.608;9.092;2023-04-12T03:40:33;77.80;;;4.50;;
29026;SDS011;16120;48.608;9.092;2023-04-12T03:44:28;79.13;;;4.87;;
29026;SDS011;16120;48.608;9.092;2023-04-12T03:48:24;76.40;;;4.50;;
29026;SDS011;16120;48.608;9.092;2023-04-12T03:52:20;78.83;;;5.10;;
29026;SDS011;16120;48.608;9.092;2023-04-12T03:56:15;78.73;;;5.33;;
29026;SDS011;16120;48.608;9.092;2023-04-12T04:00:11;79.00;;;5.50;;
29026;SDS011;16120;48.608;9.092;2023-04-12T04:04:06;78.67;;;5.00;;
29026;SDS011;16120;48.608;9.092;2023-04-12T04:08:03;78.97;;;5.03;;
29026;SDS011;16120;48.608;9.092;2023-04-12T04:11:58;78.03;;;5.13;;
29026;SDS011;16120;48.608;9.092;2023-04-12T04:15:58;78.40;;;5.47;;
29026;SDS011;16120;48.608;9.092;2023-04-12T04:19:54;78.00;;;5.33;;
29026;SDS011;16120;48.608;9.092;2023-04-12T04:23:50;80.90;;;5.60;;
29026;SDS011;16120;48.608;9.092;2023-04-12T04:27:45;76.97;;;5.03;;
29026;SDS011;16120;48.608;9.092;2023-04-12T04:31:41;78.57;;;4.90;;
29026;SDS011;16120;48.608;9.092;2023-04-12T04:35:37;80.10;;;5.33;;
29026;SDS011;16120;48.608;9.092;2023-04-12T04:39:34;80.70;;;5.87;;
29026;SDS011;16120;48.608;9.092;2023-04-12T04:43:29;79.60;;;5.60;;
29026;SDS011;16120;48.608;9.092;2023-04-12T04:47:24;78.63;;;5.70;;
29026;SDS011;16120;48.608;9.092;2023-04-12T04:51:20;81.20;;;5.78;;
29026;SDS011;16120;48.608;9.092;2023-04-12T04:55:16;80.67;;;6.33;;
29026;SDS011;16120;48.608;9.092;2023-04-12T04:59:11;81.43;;;6.07;;
29026;SDS011;16120;48.608;9.092;2023-04-12T05:03:07;80.70;;;6.40;;
29026;SDS011;16120;48.608;9.092;2023-04-12T05:07:02;81.30;;;6.03;;
29026;SDS011;16120;48.608;9.092;2023-04-12T05:10:59;77.80;;;5.43;;
29026;SDS011;16120;48.608;9.092;2023-04-12T05:14:54;78.77;;;5.10;;
29026;SDS011;16120;48.608;9.092;2023-04-12T05:18:49;80.07;;;5.10;;
29026;SDS011;16120;48.608;9.092;2023-04-12T05:22:44;78.50;;;4.90;;
29026;SDS011;16120;48.608;9.092;2023-04-12T05:26:41;77.63;;;4.53;;
29026;SDS011;16120;48.608;9.092;2023-04-12T05:30:36;78.20;;;5.30;;
29026;SDS011;16120;48.608;9.092;2023-04-12T05:34:31;79.10;;;5.07;;
29026;SDS011;16120;48.608;9.092;2023-04-12T05:38:26;77.67;;;5.17;;
29026;SDS011;16120;48.608;9.092;2023-04-12T05:42:23;81.00;;;5.00;;
29026;SDS011;16120;48.608;9.092;2023-04-12T05:46:18;76.57;;;4.80;;
29026;SDS011;16120;48.608;9.092;2023-04-12T05:50:13;78.27;;;5.33;;
29026;SDS011;16120;48.608;9.092;2023-04-12T05:54:10;78.78;;;5.50;;
29026;SDS011;16120;48.608;9.092;2023-04-12T05:58:07;79.70;;;5.40;;
29026;SDS011;16120;48.608;9.092;2023-04-12T06:02:02;77.10;;;4.93;;
29026;SDS011;16120;48.608;9.092;2023-04-12T06:05:57;76.57;;;4.60;;
29026;SDS011;16120;48.608;9.092;2023-04-12T06:09:52;78.70;;;4.97;;
29026;SDS011;16120;48.608;9.092;2023-04-12T06:13:49;79.00;;;5.83;;
29026;SDS011;16120;48.608;9.092;2023-04-12T06:17:44;78.27;;;5.27;;
29026;SDS011;16120;48.608;9.092;2023-04-12T06:21:39;80.43;;;5.20;;
29026;SDS011;16120;48.608;9.092;2023-04-12T06:25:34;77.67;;;4.93;;
29026;SDS011;16120;48.608;9.092;2023-04-12T06:29:31;77.63;;;5.70;;
29026;SDS011;16120;48.608;9.092;2023-04-12T06:33:26;78.70;;;5.37;;
29026;SDS011;16120;48.608;9.092;2023-04-12T06:37:21;78.37;;;4.80;;
29026;SDS011;16120;48.608;9.092;2023-04-12T06:41:16;77.50;;;4.63;;
29026;SDS011;16120;48.608;9.092;2023-04-12T06:45:13;77.20;;;4.60;;
29026;SDS011;16120;48.608;9.092;2023-04-12T06:49:08;77.50;;;4.23;;
29026;SDS011;16120;48.608;9.092;2023-04-12T06:53:03;76.77;;;4.60;;
29026;SDS011;16120;48.608;9.092;2023-04-12T06:56:59;76.63;;;4.43;;
29026;SDS011;16120;48.608;9.092;2023-04-12T07:00:55;77.53;;;4.67;;
29026;SDS011;16120;48.608;9.092;2023-04-12T07:04:57;77.67;;;4.80;;
29026;SDS011;16120;48.608;9.092;2023-04-12T07:08:53;76.43;;;4.50;;
29026;SDS011;16120;48.608;9.092;2023-04-12T07:12:48;78.87;;;4.40;;
29026;SDS011;16120;48.608;9.092;2023-04-12T07:16:44;81.10;;;4.90;;
29026;SDS011;16120;48.608;9.092;2023-04-12T07:20:40;77.27;;;4.60;;
29026;SDS011;16120;48.608;9.092;2023-04-12T07:24:35;77.80;;;5.10;;
29026;SDS011;16120;48.608;9.092;2023-04-12T07:28:30;79.93;;;5.20;;
29026;SDS011;16120;48.608;9.092;2023-04-12T07:32:26;82.57;;;9.37;;
29026;SDS011;16120;48.608;9.092;2023-04-12T07:36:22;80.80;;;5.30;;
29026;SDS011;16120;48.608;9.092;2023-04-12T07:40:17;79.43;;;5.20;;
29026;SDS011;16120;48.608;9.092;2023-04-12T07:44:12;80.50;;;6.47;;
29026;SDS011;16120;48.608;9.092;2023-04-12T07:48:09;82.33;;;6.33;;
29026;SDS011;16120;48.608;9.092;2023-04-12T07:52:04;76.80;;;4.83;;
29026;SDS011;16120;48.608;9.092;2023-04-12T07:55:59;78.90;;;5.03;;
29026;SDS011;16120;48.608;9.092;2023-04-12T07:59:54;77.37;;;4.87;;
29026;SDS011;16120;48.608;9.092;2023-04-12T08:03:51;78.73;;;5.33;;
29026;SDS011;16120;48.608;9.092;2023-04-12T08:07:46;79.20;;;5.77;;
29026;SDS011;16120;48.608;9.092;2023-04-12T08:11:41;79.90;;;5.23;;
29026;SDS011;16120;48.608;9.092;2023-04-12T08:15:37;79.80;;;6.30;;
29026;SDS011;16120;48.608;9.092;2023-04-12T08:19:33;80.87;;;5.27;;
29026;SDS011;16120;48.608;9.092;2023-04-12T08:23:28;78.47;;;5.30;;
29026;SDS011;16120;48.608;9.092;2023-04-12T08:27:24;77.80;;;4.60;;
29026;SDS011;16120;48.608;9.092;2023-04-12T08:31:19;76.23;;;4.50;;
29026;SDS011;16120;48.608;9.092;2023-04-12T08:35:16;77.60;;;5.17;;
29026;SDS011;16120;48.608;9.092;2023-04-12T08:39:12;78.17;;;4.43;;
29026;SDS011;16120;48.608;9.092;2023-04-12T08:43:07;76.20;;;4.43;;
29026;SDS011;16120;48.608;9.092;2023-04-12T08:47:02;77.77;;;4.40;;
29026;SDS011;16120;48.608;9.092;2023-04-12T08:50:59;75.47;;;4.40;;
29026;SDS011;16120;48.608;9.092;2023-04-12T08:54:54;76.90;;;4.50;;
29026;SDS011;16120;48.608;9.092;2023-04-12T08:58:49;77.80;;;4.37;;
29026;SDS011;16120;48.608;9.092;2023-04-12T09:02:46;79.30;;;4.70;;
29026;SDS011;16120;48.608;9.092;2023-04-12T09:06:43;76.23;;;4.57;;
29026;SDS011;16120;48.608;9.092;2023-04-12T09:10:38;76.77;;;4.40;;
29026;SDS011;16120;48.608;9.092;2023-04-12T09:14:33;77.87;;;4.40;;
29026;SDS011;16120;48.608;9.092;2023-04-12T09:18:28;77.90;;;4.47;;
29026;SDS011;16120;48.608;9.092;2023-04-12T09:22:34;77.37;;;4.67;;
29026;SDS011;16120;48.608;9.092;2023-04-12T09:26:30;80.30;;;6.80;;
29026;SDS011;16120;48.608;9.092;2023-04-12T09:30:25;77.80;;;4.90;;
29026;SDS011;16120;48.608;9.092;2023-04-12T09:34:20;76.97;;;4.97;;
29026;SDS011;16120;48.608;9.092;2023-04-12T09:38:17;77.00;;;4.28;;
29026;SDS011;16120;48.608;9.092;2023-04-12T09:42:12;82.70;;;4.27;;
29026;SDS011;16120;48.608;9.092;2023-04-12T09:46:08;79.27;;;5.03;;
29026;SDS011;16120;48.608;9.092;2023-04-12T09:50:04;77.70;;;4.87;;
29026;SDS011;16120;48.608;9.092;2023-04-12T09:54:01;78.00;;;5.30;;
29026;SDS011;16120;48.608;9.092;2023-04-12T09:57:59;75.77;;;4.70;;
29026;SDS011;16120;48.608;9.092;2023-04-12T10:01:56;77.90;;;5.43;;
29026;SDS011;16120;48.608;9.092;2023-04-12T10:05:52;80.40;;;4.67;;
29026;SDS011;16120;48.608;9.092;2023-04-12T10:09:48;76.07;;;4.60;;
29026;SDS011;16120;48.608;9.092;2023-04-12T10:13:44;76.67;;;4.70;;
29026;SDS011;16120;48.608;9.092;2023-04-12T10:17:40;77.60;;;4.47;;
29026;SDS011;16120;48.608;9.092;2023-04-12T10:21:35;77.63;;;4.50;;
29026;SDS011;16120;48.608;9.092;2023-04-12T10:25:32;77.60;;;4.70;;
29026;SDS011;16120;48.608;9.092;2023-04-12T10:29:28;78.00;;;4.57;;
29026;SDS011;16120;48.608;9.092;2023-04-12T10:33:26;80.70;;;7.13;;
29026;SDS011;16120;48.608;9.092;2023-04-12T10:37:22;77.83;;;4.67;;
29026;SDS011;16120;48.608;9.092;2023-04-12T10:41:38;79.90;;;4.70;;
29026;SDS011;16120;48.608;9.092;2023-04-12T10:45:49;75.17;;;4.50;;
29026;SDS011;16120;48.608;9.092;2023-04-12T10:58:13;75.80;;;4.73;;
29026;SDS011;16120;48.608;9.092;2023-04-12T11:02:26;76.20;;;3.90;;
29026;SDS011;16120;48.608;9.092;2023-04-12T11:06:24;75.67;;;4.10;;
29026;SDS011;16120;48.608;9.092;2023-04-12T11:10:33;77.03;;;4.30;;
29026;SDS011;16120;48.608;9.092;2023-04-12T11:14:33;73.60;;;3.60;;
29026;SDS011;16120;48.608;9.092;2023-04-12T11:18:29;75.70;;;3.97;;
29026;SDS011;16120;48.608;9.092;2023-04-12T11:22:25;76.17;;;4.30;;
29026;SDS011;16120;48.608;9.092;2023-04-12T11:26:20;74.57;;;3.80;;
29026;SDS011;16120;48.608;9.092;2023-04-12T11:30:17;74.57;;;3.90;;
29026;SDS011;16120;48.608;9.092;2023-04-12T11:34:12;75.00;;;4.10;;
29026;SDS011;16120;48.608;9.092;2023-04-12T11:38:09;74.20;;;3.80;;
29026;SDS011;16120;48.608;9.092;2023-04-12T11:42:05;74.20;;;3.57;;
29026;SDS011;16120;48.608;9.092;2023-04-12T11:46:01;74.17;;;3.80;;
29026;SDS011;16120;48.608;9.092;2023-04-12T11:49:57;74.83;;;3.50;;
29026;SDS011;16120;48.608;9.092;2023-04-12T11:53:54;74.00;;;4.20;;
29026;SDS011;16120;48.608;9.092;2023-04-12T11:57:49;73.77;;;3.40;;
29026;SDS011;16120;48.608;9.092;2023-04-12T12:01:50;74.00;;;3.73;;
29026;SDS011;16120;48.608;9.092;2023-04-12T12:05:45;73.70;;;3.40;;
29026;SDS011;16120;48.608;9.092;2023-04-12T12:09:41;73.70;;;3.47;;
29026;SDS011;16120;48.608;9.092;2023-04-12T12:13:43;74.03;;;3.33;;
29026;SDS011;16120;48.608;9.092;2023-04-12T12:17:39;73.93;;;3.50;;
29026;SDS011;16120;48.608;9.092;2023-04-12T12:21:34;74.20;;;3.40;;
29026;SDS011;16120;48.608;9.092;2023-04-12T12:25:30;75.50;;;5.43;;
29026;SDS011;16120;48.608;9.092;2023-04-12T12:29:25;77.67;;;4.00;;
29026;SDS011;16120;48.608;9.092;2023-04-12T12:33:36;74.17;;;3.73;;
29026;SDS011;16120;48.608;9.092;2023-04-12T12:37:31;74.07;;;3.73;;
29026;SDS011;16120;48.608;9.092;2023-04-12T12:41:26;72.00;;;2.80;;
29026;SDS011;16120;48.608;9.092;2023-04-12T12:45:22;71.70;;;2.80;;
29026;SDS011;16120;48.608;9.092;2023-04-12T12:49:19;72.47;;;2.87;;
29026;SDS011;16120;48.608;9.092;2023-04-12T12:53:14;72.00;;;3.07;;
29026;SDS011;16120;48.608;9.092;2023-04-12T12:57:09;74.07;;;3.25;;
29026;SDS011;16120;48.608;9.092;2023-04-12T13:01:05;74.50;;;3.30;;
29026;SDS011;16120;48.608;9.092;2023-04-12T13:05:01;72.87;;;2.70;;
29026;SDS011;16120;48.608;9.092;2023-04-12T13:08:56;73.00;;;3.50;;
29026;SDS011;16120;48.608;9.092;2023-04-12T13:12:52;72.73;;;3.00;;
29026;SDS011;16120;48.608;9.092;2023-04-12T13:16:47;72.87;;;2.60;;
29026;SDS011;16120;48.608;9.092;2023-04-12T13:20:43;73.23;;;3.00;;
29026;SDS011;16120;48.608;9.092;2023-04-12T13:24:39;72.70;;;2.90;;
29026;SDS011;16120;48.608;9.092;2023-04-12T13:28:36;72.10;;;3.07;;
29026;SDS011;16120;48.608;9.092;2023-04-12T13:32:31;74.13;;;2.93;;
29026;SDS011;16120;48.608;9.092;2023-04-12T13:36:28;75.30;;;5.37;;
29026;SDS011;16120;48.608;9.092;2023-04-12T13:40:23;73.90;;;2.93;;
29026;SDS011;16120;48.608;9.092;2023-04-12T13:44:18;75.40;;;3.10;;
29026;SDS011;16120;48.608;9.092;2023-04-12T13:48:14;72.07;;;2.77;;
29026;SDS011;16120;48.608;9.092;2023-04-12T13:52:10;73.37;;;2.87;;
29026;SDS011;16120;48.608;9.092;2023-04-12T13:56:06;74.10;;;2.70;;
29026;SDS011;16120;48.608;9.092;2023-04-12T14:00:01;73.10;;;2.87;;
29026;SDS011;16120;48.608;9.092;2023-04-12T14:03:56;71.50;;;2.50;;
29026;SDS011;16120;48.608;9.092;2023-04-12T14:07:53;71.20;;;2.40;;
29026;SDS011;16120;48.608;9.092;2023-04-12T14:11:49;74.20;;;2.77;;
29026;SDS011;16120;48.608;9.092;2023-04-12T14:15:44;71.50;;;2.40;;
29026;SDS011;16120;48.608;9.092;2023-04-12T14:19:39;70.97;;;2.60;;
29026;SDS011;16120;48.608;9.092;2023-04-12T14:23:36;71.33;;;2.50;;
29026;SDS011;16120;48.608;9.092;2023-04-12T14:27:31;72.73;;;2.70;;
29026;SDS011;16120;48.608;9.092;2023-04-12T14:31:26;71.27;;;2.60;;
29026;SDS011;16120;48.608;9.092;2023-04-12T14:35:22;74.40;;;3.80;;
29026;SDS011;16120;48.608;9.092;2023-04-12T14:39:18;73.03;;;2.92;;
29026;SDS011;16120;48.608;9.092;2023-04-12T14:43:13;73.93;;;3.30;;
29026;SDS011;16120;48.608;9.092;2023-04-12T14:47:09;73.40;;;3.30;;
29026;SDS011;16120;48.608;9.092;2023-04-12T14:51:04;73.77;;;3.53;;
29026;SDS011;16120;48.608;9.092;2023-04-12T14:55:01;72.77;;;2.97;;
29026;SDS011;16120;48.608;9.092;2023-04-12T14:58:56;73.00;;;3.00;;
29026;SDS011;16120;48.608;9.092;2023-04-12T15:02:51;73.53;;;5.20;;
29026;SDS011;16120;48.608;9.092;2023-04-12T15:06:46;72.70;;;2.50;;
29026;SDS011;16120;48.608;9.092;2023-04-12T15:10:47;72.30;;;3.33;;
29026;SDS011;16120;48.608;9.092;2023-04-12T15:14:42;73.20;;;2.80;;
29026;SDS011;16120;48.608;9.092;2023-04-12T15:18:37;71.97;;;2.60;;
29026;SDS011;16120;48.608;9.092;2023-04-12T15:22:33;71.00;;;2.60;;
29026;SDS011;16120;48.608;9.092;2023-04-12T15:26:30;71.77;;;2.90;;
29026;SDS011;16120;48.608;9.092;2023-04-12T15:30:25;71.33;;;2.70;;
29026;SDS011;16120;48.608;9.092;2023-04-12T15:34:20;72.50;;;2.73;;
29026;SDS011;16120;48.608;9.092;2023-04-12T15:38:15;72.45;;;2.50;;
29026;SDS011;16120;48.608;9.092;2023-04-12T15:42:12;72.20;;;2.70;;
29026;SDS011;16120;48.608;9.092;2023-04-12T15:46:07;73.67;;;2.67;;
29026;SDS011;16120;48.608;9.092;2023-04-12T15:50:03;73.57;;;3.00;;
29026;SDS011;16120;48.608;9.092;2023-04-12T15:53:58;73.27;;;2.70;;
29026;SDS011;16120;48.608;9.092;2023-04-12T15:57:54;72.10;;;2.70;;
29026;SDS011;16120;48.608;9.092;2023-04-12T16:01:50;73.37;;;2.63;;
29026;SDS011;16120;48.608;9.092;2023-04-12T16:05:45;72.40;;;2.60;;
29026;SDS011;16120;48.608;9.092;2023-04-12T16:09:40;71.47;;;2.30;;
29026;SDS011;16120;48.608;9.092;2023-04-12T16:13:37;72.20;;;2.27;;
29026;SDS011;16120;48.608;9.092;2023-04-12T16:17:32;72.27;;;2.40;;
29026;SDS011;16120;48.608;9.092;2023-04-12T16:21:27;72.00;;;2.40;;
29026;SDS011;16120;48.608;9.092;2023-04-12T16:25:22;73.10;;;2.60;;
29026;SDS011;16120;48.608;9.092;2023-04-12T16:29:19;73.90;;;2.70;;
29026;SDS011;16120;48.608;9.092;2023-04-12T16:33:14;73.17;;;2.90;;
29026;SDS011;16120;48.608;9.092;2023-04-12T16:37:12;73.43;;;2.70;;
29026;SDS011;16120;48.608;9.092;2023-04-12T16:41:07;73.87;;;2.73;;
29026;SDS011;16120;48.608;9.092;2023-04-12T16:45:04;72.32;;;2.60;;
29026;SDS011;16120;48.608;9.092;2023-04-12T16:49:00;75.27;;;2.60;;
29026;SDS011;16120;48.608;9.092;2023-04-12T16:52:55;78.70;;;2.90;;
29026;SDS011;16120;48.608;9.092;2023-04-12T16:56:50;72.70;;;2.73;;
29026;SDS011;16120;48.608;9.092;2023-04-12T17:00:47;72.50;;;2.50;;
29026;SDS011;16120;48.608;9.092;2023-04-12T17:04:42;73.83;;;2.70;;
29026;SDS011;16120;48.608;9.092;2023-04-12T17:08:37;73.20;;;2.80;;
29026;SDS011;16120;48.608;9.092;2023-04-12T17:12:32;73.20;;;2.80;;
29026;SDS011;16120;48.608;9.092;2023-04-12T17:16:29;73.67;;;3.30;;
29026;SDS011;16120;48.608;9.092;2023-04-12T17:20:24;73.30;;;2.80;;
29026;SDS011;16120;48.608;9.092;2023-04-12T17:24:20;73.27;;;3.03;;
29026;SDS011;16120;48.608;9.092;2023-04-12T17:28:16;73.63;;;2.90;;
29026;SDS011;16120;48.608;9.092;2023-04-12T17:32:12;73.23;;;2.93;;
29026;SDS011;16120;48.608;9.092;2023-04-12T17:36:08;73.40;;;2.80;;
29026;SDS011;16120;48.608;9.092;2023-04-12T17:40:03;73.33;;;2.97;;
29026;SDS011;16120;48.608;9.092;2023-04-12T17:43:59;73.23;;;2.80;;
29026;SDS011;16120;48.608;9.092;2023-04-12T17:47:55;73.40;;;2.73;;
29026;SDS011;16120;48.608;9.092;2023-04-12T17:51:51;73.67;;;2.93;;
29026;SDS011;16120;48.608;9.092;2023-04-12T17:55:46;75.57;;;3.20;;
29026;SDS011;16120;48.608;9.092;2023-04-12T17:59:41;73.70;;;2.77;;
29026;SDS011;16120;48.608;9.092;2023-04-12T18:03:38;74.17;;;3.40;;
29026;SDS011;16120;48.608;9.092;2023-04-12T18:07:33;74.17;;;3.10;;
29026;SDS011;16120;48.608;9.092;2023-04-12T18:11:28;76.40;;;3.10;;
29026;SDS011;16120;48.608;9.092;2023-04-12T18:15:23;73.20;;;2.80;;
29026;SDS011;16120;48.608;9.092;2023-04-12T18:19:20;73.82;;;3.03;;
29026;SDS011;16120;48.608;9.092;2023-04-12T18:23:15;74.27;;;3.13;;
29026;SDS011;16120;48.608;9.092;2023-04-12T18:27:10;73.70;;;3.00;;
29026;SDS011;16120;48.608;9.092;2023-04-12T18:31:06;73.80;;;3.30;;
29026;SDS011;16120;48.608;9.092;2023-04-12T18:35:02;75.18;;;3.17;;
29026;SDS011;16120;48.608;9.092;2023-04-12T18:38:58;74.03;;;3.20;;
29026;SDS011;16120;48.608;9.092;2023-04-12T18:42:53;74.40;;;3.20;;
29026;SDS011;16120;48.608;9.092;2023-04-12T18:46:48;74.63;;;3.20;;
29026;SDS011;16120;48.608;9.092;2023-04-12T18:50:46;74.37;;;3.07;;
29026;SDS011;16120;48.608;9.092;2023-04-12T18:54:41;74.43;;;3.20;;
29026;SDS011;16120;48.608;9.092;2023-04-12T18:58:36;73.70;;;2.97;;
29026;SDS011;16120;48.608;9.092;2023-04-12T19:02:32;74.13;;;2.97;;
29026;SDS011;16120;48.608;9.092;2023-04-12T19:06:29;74.90;;;3.33;;
29026;SDS011;16120;48.608;9.092;2023-04-12T19:10:24;75.10;;;3.27;;
29026;SDS011;16120;48.608;9.092;2023-04-12T19:14:19;74.20;;;3.33;;
29026;SDS011;16120;48.608;9.092;2023-04-12T19:18:14;74.50;;;3.30;;
29026;SDS011;16120;48.608;9.092;2023-04-12T19:22:11;74.32;;;3.67;;
29026;SDS011;16120;48.608;9.092;2023-04-12T19:26:06;75.67;;;3.47;;
29026;SDS011;16120;48.608;9.092;2023-04-12T19:30:01;75.38;;;3.50;;
29026;SDS011;16120;48.608;9.092;2023-04-12T19:33:57;74.67;;;3.43;;
29026;SDS011;16120;48.608;9.092;2023-04-12T19:37:54;74.50;;;3.30;;
29026;SDS011;16120;48.608;9.092;2023-04-12T19:41:51;76.63;;;3.63;;
29026;SDS011;16120;48.608;9.092;2023-04-12T19:45:46;74.07;;;3.23;;
29026;SDS011;16120;48.608;9.092;2023-04-12T19:49:43;76.53;;;3.37;;
29026;SDS011;16120;48.608;9.092;2023-04-12T19:53:40;75.67;;;3.40;;
29026;SDS011;16120;48.608;9.092;2023-04-12T19:57:35;74.03;;;3.27;;
29026;SDS011;16120;48.608;9.092;2023-04-12T20:01:31;74.43;;;3.30;;
29026;SDS011;16120;48.608;9.092;2023-04-12T20:05:26;74.87;;;3.40;;
29026;SDS011;16120;48.608;9.092;2023-04-12T20:09:23;74.50;;;3.40;;
29026;SDS011;16120;48.608;9.092;2023-04-12T20:13:18;76.67;;;3.70;;
29026;SDS011;16120;48.608;9.092;2023-04-12T20:17:13;73.80;;;3.20;;
29026;SDS011;16120;48.608;9.092;2023-04-12T20:21:08;74.77;;;3.33;;
29026;SDS011;16120;48.608;9.092;2023-04-12T20:25:05;74.60;;;3.37;;
29026;SDS011;16120;48.608;9.092;2023-04-12T20:29:01;74.87;;;3.40;;
29026;SDS011;16120;48.608;9.092;2023-04-12T20:32:56;74.20;;;3.50;;
29026;SDS011;16120;48.608;9.092;2023-04-12T20:36:51;75.27;;;3.60;;
29026;SDS011;16120;48.608;9.092;2023-04-12T20:40:48;74.25;;;3.30;;
29026;SDS011;16120;48.608;9.092;2023-04-12T20:44:43;74.40;;;3.33;;
29026;SDS011;16120;48.608;9.092;2023-04-12T20:48:38;74.73;;;3.37;;
29026;SDS011;16120;48.608;9.092;2023-04-12T20:52:33;74.93;;;3.53;;
29026;SDS011;16120;48.608;9.092;2023-04-12T20:56:30;74.75;;;3.42;;
29026;SDS011;16120;48.608;9.092;2023-04-12T21:00:25;75.10;;;3.50;;
29026;SDS011;16120;48.608;9.092;2023-04-12T21:04:20;75.13;;;3.13;;
29026;SDS011;16120;48.608;9.092;2023-04-12T21:08:16;77.67;;;3.10;;
29026;SDS011;16120;48.608;9.092;2023-04-12T21:12:12;74.73;;;3.47;;
29026;SDS011;16120;48.608;9.092;2023-04-12T21:16:07;74.20;;;3.00;;
29026;SDS011;16120;48.608;9.092;2023-04-12T21:20:03;74.40;;;3.30;;
29026;SDS011;16120;48.608;9.092;2023-04-12T21:23:58;76.80;;;3.33;;
29026;SDS011;16120;48.608;9.092;2023-04-12T21:27:55;75.30;;;3.27;;
29026;SDS011;16120;48.608;9.092;2023-04-12T21:31:50;74.30;;;3.40;;
29026;SDS011;16120;48.608;9.092;2023-04-12T21:35:45;74.60;;;3.10;;
29026;SDS011;16120;48.608;9.092;2023-04-12T21:39:41;74.20;;;3.20;;
29026;SDS011;16120;48.608;9.092;2023-04-12T21:43:37;74.50;;;3.10;;
29026;SDS011;16120;48.608;9.092;2023-04-12T21:47:33;74.57;;;3.27;;
29026;SDS011;16120;48.608;9.092;2023-04-12T21:51:28;77.40;;;3.10;;
29026;SDS011;16120;48.608;9.092;2023-04-12T21:55:25;74.27;;;3.20;;
29026;SDS011;16120;48.608;9.092;2023-04-12T21:59:21;75.13;;;3.20;;
29026;SDS011;16120;48.608;9.092;2023-04-12T22:03:16;74.40;;;3.03;;
29026;SDS011;16120;48.608;9.092;2023-04-12T22:07:11;74.50;;;3.37;;
29026;SDS011;16120;48.608;9.092;2023-04-12T22:11:07;74.50;;;3.23;;
29026;SDS011;16120;48.608;9.092;2023-04-12T22:15:04;75.10;;;3.50;;
29026;SDS011;16120;48.608;9.092;2023-04-12T22:18:59;74.87;;;3.40;;
29026;SDS011;16120;48.608;9.092;2023-04-12T22:22:54;74.80;;;3.40;;
29026;SDS011;16120;48.608;9.092;2023-04-12T22:26:49;76.00;;;3.67;;
29026;SDS011;16120;48.608;9.092;2023-04-12T22:30:46;74.75;;;3.38;;
29026;SDS011;16120;48.608;9.092;2023-04-12T22:34:41;74.80;;;3.50;;
29026;SDS011;16120;48.608;9.092;2023-04-12T22:38:36;75.17;;;3.60;;
29026;SDS011;16120;48.608;9.092;2023-04-12T22:42:32;74.60;;;3.30;;
29026;SDS011;16120;48.608;9.092;2023-04-12T22:46:28;74.80;;;3.33;;
29026;SDS011;16120;48.608;9.092;2023-04-12T22:50:23;79.83;;;3.40;;
29026;SDS011;16120;48.608;9.092;2023-04-12T22:54:19;74.87;;;3.30;;
29026;SDS011;16120;48.608;9.092;2023-04-12T22:58:14;74.63;;;3.43;;
29026;SDS011;16120;48.608;9.092;2023-04-12T23:02:10;77.23;;;3.70;;
29026;SDS011;16120;48.608;9.092;2023-04-12T23:06:06;75.47;;;3.53;;
29026;SDS011;16120;48.608;9.092;2023-04-12T23:10:01;75.80;;;3.30;;
29026;SDS011;16120;48.608;9.092;2023-04-12T23:13:56;75.60;;;3.60;;
29026;SDS011;16120;48.608;9.092;2023-04-12T23:17:53;74.90;;;3.43;;
29026;SDS011;16120;48.608;9.092;2023-04-12T23:21:48;75.33;;;3.40;;
29026;SDS011;16120;48.608;9.092;2023-04-12T23:25:43;75.30;;;3.30;;